Zhezkazgan, Kazakhstan
Current Conditions -  °F | °C
As of 6:00 AM on Friday 19 Dec 2014 (Local Time) from UAOO Reporting Station
Clear Clear  
Wind Chill:   Ceiling: Unl
Heat Index: 14°   Visibility: 6mi
Dew Point: 10°   Wind: 7mph
Humidity: 86%   Direction: 30°NNE
Pressure: 30.3"   Gusts: NA
Location:  47.78°N, 67.77°E
Report Text: UAOO 190000Z 03003MPS CAVOK M10/M12 Q1026 NOSIG RMKQFE758/1010
Loading
Personal Weather Stations






























Interactive Weather Map New forecast layout! Learn more

10-Day Weather Forecast

Advertisements
Track Severe Weather on mobile